createdAt,value
2022-08-25T04:00:34.743Z,1004.41
2022-08-25T04:01:34.743Z,1004.53
2022-08-25T04:02:34.771Z,1004.46
2022-08-25T04:03:34.677Z,1004.48
2022-08-25T04:04:34.668Z,1004.48
2022-08-25T04:05:34.658Z,1004.53
2022-08-25T04:06:34.655Z,1004.53
2022-08-25T04:07:34.633Z,1004.49
2022-08-25T04:08:34.628Z,1004.59
2022-08-25T04:09:36.881Z,1004.55
2022-08-25T04:10:34.602Z,1004.55
2022-08-25T04:11:39.625Z,1004.63
2022-08-25T04:12:34.579Z,1004.59
2022-08-25T04:13:34.567Z,1004.59
2022-08-25T04:14:34.557Z,1004.59
2022-08-25T04:15:34.547Z,1004.66
2022-08-25T04:16:34.594Z,1004.63
2022-08-25T04:17:34.524Z,1004.65
2022-08-25T04:18:34.518Z,1004.69
2022-08-25T04:19:34.503Z,1004.61
2022-08-25T04:20:34.491Z,1004.58
2022-08-25T04:21:34.485Z,1004.67
2022-08-25T04:22:39.503Z,1004.65
2022-08-25T04:23:35.458Z,1004.62
2022-08-25T04:24:34.446Z,1004.71
2022-08-25T04:25:34.433Z,1004.68
2022-08-25T04:26:34.446Z,1004.67
2022-08-25T04:27:34.411Z,1004.61
2022-08-25T04:28:34.404Z,1004.68
2022-08-25T04:29:34.389Z,1004.73
2022-08-25T04:30:34.386Z,1004.73
2022-08-25T04:31:34.456Z,1004.77
2022-08-25T04:32:34.357Z,1004.70
2022-08-25T04:33:39.366Z,1004.74
2022-08-25T04:34:34.345Z,1004.75
2022-08-25T04:35:34.337Z,1004.72
2022-08-25T04:36:34.336Z,1004.76
2022-08-25T04:37:34.301Z,1004.76
2022-08-25T04:38:34.290Z,1004.78
2022-08-25T04:39:34.278Z,1004.71
2022-08-25T04:40:34.344Z,1004.82
2022-08-25T04:41:34.274Z,1004.77
2022-08-25T04:42:34.247Z,1004.76
2022-08-25T04:43:34.235Z,1004.74
2022-08-25T04:44:39.246Z,1004.81
2022-08-25T04:45:34.268Z,1004.78
2022-08-25T04:46:34.202Z,1004.79
2022-08-25T04:47:34.200Z,1004.76
2022-08-25T04:48:34.179Z,1004.75
2022-08-25T04:49:34.168Z,1004.73
2022-08-25T04:50:34.167Z,1004.69
2022-08-25T04:51:34.154Z,1004.66
2022-08-25T04:52:34.143Z,1004.71
2022-08-25T04:53:34.125Z,1004.75
2022-08-25T04:54:37.170Z,1004.69
2022-08-25T04:55:39.125Z,1004.70
2022-08-25T04:56:34.094Z,1004.66
2022-08-25T04:57:34.113Z,1004.66
2022-08-25T04:58:34.103Z,1004.68
2022-08-25T04:59:34.063Z,1004.64
2022-08-25T05:00:34.106Z,1004.64
2022-08-25T05:01:34.042Z,1004.66
2022-08-25T05:02:34.032Z,1004.61
2022-08-25T05:03:34.012Z,1004.65
2022-08-25T05:04:34.064Z,1004.63
2022-08-25T05:05:33.989Z,1004.60
2022-08-25T05:06:39.002Z,1004.69
2022-08-25T05:07:33.976Z,1004.65
2022-08-25T05:08:33.967Z,1004.64
2022-08-25T05:09:33.945Z,1004.62
2022-08-25T05:10:33.936Z,1004.68
2022-08-25T05:11:33.922Z,1004.61
2022-08-25T05:12:33.923Z,1004.64
2022-08-25T05:13:33.905Z,1004.65
2022-08-25T05:14:33.893Z,1004.63
2022-08-25T05:15:33.879Z,1004.67
2022-08-25T05:16:34.075Z,1004.62
2022-08-25T05:17:38.890Z,1004.65
2022-08-25T05:18:33.846Z,1004.66
2022-08-25T05:19:33.836Z,1004.62
2022-08-25T05:20:33.825Z,1004.68
2022-08-25T05:21:33.812Z,1004.69
2022-08-25T05:22:33.811Z,1004.65
2022-08-25T05:23:33.796Z,1004.56
2022-08-25T05:24:33.796Z,1004.69
2022-08-25T05:25:33.776Z,1004.61
2022-08-25T05:26:33.758Z,1004.54
2022-08-25T05:27:33.757Z,1004.57
2022-08-25T05:28:38.762Z,1004.46
2022-08-25T05:29:33.731Z,1004.49
2022-08-25T05:30:33.717Z,1004.55
2022-08-25T05:31:34.908Z,1004.50
2022-08-25T05:32:33.704Z,1004.48
2022-08-25T05:33:33.681Z,1004.43
2022-08-25T05:34:33.674Z,1004.45
2022-08-25T05:35:33.663Z,1004.47
2022-08-25T05:36:33.653Z,1004.50
2022-08-25T05:37:33.650Z,1004.56
2022-08-25T05:38:33.627Z,1004.51
2022-08-25T05:39:38.668Z,1004.53
2022-08-25T05:40:33.607Z,1004.51
2022-08-25T05:41:33.608Z,1004.47
2022-08-25T05:42:33.598Z,1004.48
2022-08-25T05:43:33.575Z,1004.47
2022-08-25T05:44:33.563Z,1004.48
2022-08-25T05:45:33.598Z,1004.50
2022-08-25T05:46:33.544Z,1004.51
2022-08-25T05:47:33.548Z,1004.56
2022-08-25T05:48:33.523Z,1004.47
2022-08-25T05:49:33.510Z,1004.44
2022-08-25T05:50:38.520Z,1004.53
2022-08-25T05:51:33.487Z,1004.49
2022-08-25T05:52:33.488Z,1004.54
2022-08-25T05:53:33.973Z,1004.56
2022-08-25T05:54:33.453Z,1004.51
2022-08-25T05:55:33.443Z,1004.49
2022-08-25T05:56:33.431Z,1004.52
2022-08-25T05:57:33.437Z,1004.57
2022-08-25T05:58:33.441Z,1004.50
2022-08-25T05:59:33.401Z,1004.50
2022-08-25T06:00:33.389Z,1004.54
2022-08-25T06:01:38.401Z,1004.53
2022-08-25T06:02:33.375Z,1004.50
2022-08-25T06:03:33.440Z,1004.47
2022-08-25T06:04:33.348Z,1004.45
2022-08-25T06:05:33.337Z,1004.43
2022-08-25T06:06:33.344Z,1004.41
2022-08-25T06:07:33.317Z,1004.43
2022-08-25T06:08:33.314Z,1004.42
2022-08-25T06:09:33.292Z,1004.43
2022-08-25T06:10:33.281Z,1004.45
2022-08-25T06:11:33.286Z,1004.45
2022-08-25T06:12:38.290Z,1004.44
2022-08-25T06:13:33.251Z,1004.43
2022-08-25T06:14:33.236Z,1004.49
2022-08-25T06:15:33.227Z,1004.53
2022-08-25T06:16:33.316Z,1004.45
2022-08-25T06:17:33.205Z,1004.47
2022-08-25T06:18:33.190Z,1004.45
2022-08-25T06:19:33.193Z,1004.42
2022-08-25T06:20:33.188Z,1004.51
2022-08-25T06:21:33.162Z,1004.50
2022-08-25T06:22:33.155Z,1004.48
2022-08-25T06:23:38.161Z,1004.55
2022-08-25T06:24:33.124Z,1004.53
2022-08-25T06:25:33.120Z,1004.57
2022-08-25T06:26:33.101Z,1004.54
2022-08-25T06:27:33.105Z,1004.56
2022-08-25T06:28:33.082Z,1004.50
2022-08-25T06:29:33.074Z,1004.56
2022-08-25T06:30:33.063Z,1004.54
2022-08-25T06:31:33.136Z,1004.54
2022-08-25T06:32:33.046Z,1004.50
2022-08-25T06:33:33.043Z,1004.51
2022-08-25T06:34:38.039Z,1004.51
2022-08-25T06:35:33.005Z,1004.44
2022-08-25T06:36:33.000Z,1004.51
2022-08-25T06:37:33.007Z,1004.47
2022-08-25T06:38:32.974Z,1004.45
2022-08-25T06:39:32.969Z,1004.47
2022-08-25T06:40:33.085Z,1004.38
2022-08-25T06:41:36.721Z,1004.44
2022-08-25T06:42:32.943Z,1004.36
2022-08-25T06:43:32.918Z,1004.41
2022-08-25T06:44:32.903Z,1004.40
2022-08-25T06:45:37.919Z,1004.41
2022-08-25T06:46:36.470Z,1004.43
2022-08-25T06:47:32.887Z,1004.46
2022-08-25T06:48:32.863Z,1004.41
2022-08-25T06:49:36.052Z,1004.44
2022-08-25T06:50:32.839Z,1004.51
2022-08-25T06:51:32.837Z,1004.42
2022-08-25T06:52:32.828Z,1004.49
2022-08-25T06:53:32.819Z,1004.44
2022-08-25T06:54:32.798Z,1004.48
2022-08-25T06:55:32.785Z,1004.41
2022-08-25T06:56:37.842Z,1004.39
2022-08-25T06:57:32.779Z,1004.45
2022-08-25T06:58:32.753Z,1004.42
2022-08-25T06:59:32.748Z,1004.33
2022-08-25T07:00:32.858Z,1004.36
2022-08-25T07:01:32.842Z,1004.43
2022-08-25T07:02:32.808Z,1004.41
2022-08-25T07:03:32.697Z,1004.40
2022-08-25T07:04:32.695Z,1004.49
2022-08-25T07:05:42.857Z,1004.34
2022-08-25T07:06:33.661Z,1004.40
2022-08-25T07:07:44.188Z,1004.37
2022-08-25T07:08:33.644Z,1004.40
2022-08-25T07:09:35.297Z,1004.39
2022-08-25T07:10:33.619Z,1004.38
2022-08-25T07:11:32.610Z,1004.33
2022-08-25T07:12:32.617Z,1004.29
2022-08-25T07:13:32.587Z,1004.34
2022-08-25T07:14:32.582Z,1004.32
2022-08-25T07:15:32.571Z,1004.28
2022-08-25T07:16:32.644Z,1004.27
2022-08-25T07:17:32.560Z,1004.24
2022-08-25T07:18:37.554Z,1004.22
2022-08-25T07:19:32.522Z,1004.21
2022-08-25T07:20:32.513Z,1004.21
2022-08-25T07:21:33.629Z,1004.22
2022-08-25T07:22:32.540Z,1004.21
2022-08-25T07:23:32.478Z,1004.19
2022-08-25T07:24:32.471Z,1004.24
2022-08-25T07:25:32.457Z,1004.22
2022-08-25T07:26:39.580Z,1004.22
2022-08-25T07:27:33.460Z,1004.20
2022-08-25T07:28:32.421Z,1004.16
2022-08-25T07:29:37.434Z,1004.23
2022-08-25T07:30:33.413Z,1004.21
2022-08-25T07:31:32.467Z,1004.21
2022-08-25T07:32:32.395Z,1004.17
2022-08-25T07:33:32.389Z,1004.21
2022-08-25T07:34:32.360Z,1004.22
2022-08-25T07:35:37.772Z,1004.20
2022-08-25T07:36:33.331Z,1004.20
2022-08-25T07:37:48.173Z,1004.16
2022-08-25T07:38:33.321Z,1004.16
2022-08-25T07:39:32.301Z,1004.10
2022-08-25T07:40:37.376Z,1004.17
2022-08-25T07:41:33.302Z,1004.16
2022-08-25T07:42:32.270Z,1004.21
2022-08-25T07:43:32.275Z,1004.19
2022-08-25T07:44:32.248Z,1004.26
2022-08-25T07:45:32.236Z,1004.20
2022-08-25T07:46:32.281Z,1004.18
2022-08-25T07:47:32.216Z,1004.24
2022-08-25T07:48:32.219Z,1004.29
2022-08-25T07:49:36.081Z,1004.25
2022-08-25T07:50:33.178Z,1004.27
2022-08-25T07:51:37.195Z,1004.22
2022-08-25T07:52:33.166Z,1004.23
2022-08-25T07:53:32.158Z,1004.20
2022-08-25T07:54:34.623Z,1004.20
2022-08-25T07:55:32.126Z,1004.14
2022-08-25T07:56:32.114Z,1004.16
2022-08-25T07:57:32.108Z,1004.22
2022-08-25T07:58:32.105Z,1004.17
2022-08-25T07:59:39.515Z,1004.22
2022-08-25T08:00:33.115Z,1004.26
2022-08-25T08:01:32.105Z,1004.17
2022-08-25T08:02:37.098Z,1004.27
2022-08-25T08:03:45.164Z,1004.22
2022-08-25T08:04:33.026Z,1004.20
2022-08-25T08:05:32.021Z,1004.24
2022-08-25T08:06:32.006Z,1004.25
2022-08-25T08:07:43.592Z,1004.29
2022-08-25T08:08:33.310Z,1004.25
2022-08-25T08:09:31.975Z,1004.29
2022-08-25T08:11:32.953Z,1004.28
2022-08-25T08:12:31.988Z,1004.30
2022-08-25T08:13:41.270Z,1004.34
2022-08-25T08:14:31.916Z,1004.28
2022-08-25T08:15:31.906Z,1004.27
2022-08-25T08:16:31.942Z,1004.29
2022-08-25T08:17:31.888Z,1004.29
2022-08-25T08:18:31.884Z,1004.28
2022-08-25T08:19:31.879Z,1004.30
2022-08-25T08:20:31.855Z,1004.24
2022-08-25T08:21:32.847Z,1004.28
2022-08-25T08:22:31.829Z,1004.27
2022-08-25T08:23:31.829Z,1004.30
2022-08-25T08:24:53.877Z,1004.23
2022-08-25T08:25:32.812Z,1004.29
2022-08-25T08:26:55.390Z,1004.24
2022-08-25T08:27:32.786Z,1004.36
2022-08-25T08:28:31.822Z,1004.31
2022-08-25T08:29:31.760Z,1004.37
2022-08-25T08:30:31.753Z,1004.31
2022-08-25T08:31:31.802Z,1004.31
2022-08-25T08:32:46.442Z,1004.30
2022-08-25T08:33:32.723Z,1004.33
2022-08-25T08:34:32.705Z,1004.31
2022-08-25T08:35:36.716Z,1004.35
2022-08-25T08:36:31.681Z,1004.37
2022-08-25T08:37:31.672Z,1004.35
2022-08-25T08:38:31.679Z,1004.37
2022-08-25T08:39:31.647Z,1004.32
2022-08-25T08:40:31.754Z,1004.39
2022-08-25T08:41:33.848Z,1004.35
2022-08-25T08:42:32.615Z,1004.30
2022-08-25T08:43:33.433Z,1004.30
2022-08-25T08:44:31.590Z,1004.26
2022-08-25T08:45:35.289Z,1004.34
2022-08-25T08:46:37.658Z,1004.31
2022-08-25T08:47:31.563Z,1004.31
2022-08-25T08:48:31.561Z,1004.34
2022-08-25T08:49:31.538Z,1004.29
2022-08-25T08:50:33.187Z,1004.23
2022-08-25T08:51:32.762Z,1004.21
2022-08-25T08:52:31.504Z,1004.20
2022-08-25T08:53:34.001Z,1004.17
2022-08-25T08:54:31.486Z,1004.18
2022-08-25T08:55:31.479Z,1004.15
2022-08-25T08:56:31.463Z,1004.13
2022-08-25T08:57:36.501Z,1004.15
2022-08-25T08:58:31.456Z,1004.14
2022-08-25T08:59:31.429Z,1004.12
2022-08-25T09:00:31.415Z,1004.14
2022-08-25T09:01:31.482Z,1004.20
2022-08-25T09:02:39.299Z,1004.11
2022-08-25T09:03:32.510Z,1004.17
2022-08-25T09:04:31.371Z,1004.14
2022-08-25T09:05:31.372Z,1004.13
2022-08-25T09:06:31.350Z,1004.08
2022-08-25T09:07:31.340Z,1004.07
2022-08-25T09:08:36.359Z,1004.09
2022-08-25T09:09:31.317Z,1004.14
2022-08-25T09:10:31.314Z,1004.13
2022-08-25T09:11:31.302Z,1004.17
2022-08-25T09:12:31.304Z,1004.18
2022-08-25T09:13:31.275Z,1004.12
2022-08-25T09:14:31.271Z,1004.12
2022-08-25T09:15:31.385Z,1004.09
2022-08-25T09:16:34.485Z,1004.08
2022-08-25T09:17:31.231Z,1004.13
2022-08-25T09:18:31.217Z,1004.05
2022-08-25T09:19:36.241Z,1004.09
2022-08-25T09:20:32.200Z,1004.09
2022-08-25T09:21:31.201Z,1004.03
2022-08-25T09:22:34.995Z,1004.06
2022-08-25T09:23:32.163Z,1004.03
2022-08-25T09:24:31.160Z,1004.04
2022-08-25T09:26:32.129Z,1004.00
2022-08-25T09:27:31.128Z,1004.00
2022-08-25T09:28:31.107Z,1004.00
2022-08-25T09:29:31.107Z,1003.97
2022-08-25T09:30:36.107Z,1003.97
2022-08-25T09:31:31.155Z,1003.94
2022-08-25T09:32:31.631Z,1004.01
2022-08-25T09:33:31.053Z,1003.89
2022-08-25T09:34:31.052Z,1003.89
2022-08-25T09:35:31.031Z,1003.86
2022-08-25T09:36:35.481Z,1003.90
2022-08-25T09:37:32.012Z,1003.88
2022-08-25T09:38:30.999Z,1003.93
2022-08-25T09:39:31.000Z,1003.86
2022-08-25T09:40:31.047Z,1003.86
2022-08-25T09:41:35.988Z,1003.84
2022-08-25T09:42:30.955Z,1003.80
2022-08-25T09:43:30.944Z,1003.74
2022-08-25T09:44:30.944Z,1003.70
2022-08-25T09:45:30.926Z,1003.78
2022-08-25T09:46:30.946Z,1003.77
2022-08-25T09:47:30.903Z,1003.70
2022-08-25T09:48:30.890Z,1003.70
2022-08-25T09:49:30.889Z,1003.70
2022-08-25T09:50:30.866Z,1003.71
2022-08-25T09:51:37.838Z,1003.64
2022-08-25T09:52:36.867Z,1003.56
2022-08-25T09:53:33.912Z,1003.56
2022-08-25T09:54:43.954Z,1003.54
2022-08-25T09:55:32.477Z,1003.60
2022-08-25T09:56:30.807Z,1003.54
2022-08-25T09:57:30.796Z,1003.52
2022-08-25T09:58:30.780Z,1003.52
2022-08-25T09:59:35.019Z,1003.55
2022-08-25T10:00:31.758Z,1003.62
2022-08-25T10:01:34.811Z,1003.51
2022-08-25T10:02:30.737Z,1003.46
2022-08-25T10:03:30.728Z,1003.45
2022-08-25T10:04:31.724Z,1003.42
2022-08-25T10:05:35.846Z,1003.48
2022-08-25T10:06:30.726Z,1003.54
2022-08-25T10:07:30.714Z,1003.50
2022-08-25T10:08:30.674Z,1003.46
2022-08-25T10:09:30.670Z,1003.37
2022-08-25T10:10:32.475Z,1003.45
2022-08-25T10:11:30.642Z,1003.38
2022-08-25T10:12:30.633Z,1003.39
2022-08-25T10:13:30.618Z,1003.41
2022-08-25T10:14:30.620Z,1003.33
2022-08-25T10:15:30.841Z,1003.32
2022-08-25T10:16:35.565Z,1003.30
2022-08-25T10:17:31.581Z,1003.25
2022-08-25T10:18:35.595Z,1003.28
2022-08-25T10:19:30.586Z,1003.25
2022-08-25T10:20:33.009Z,1003.27
2022-08-25T10:21:30.536Z,1003.24
2022-08-25T10:22:30.528Z,1003.25
2022-08-25T10:23:30.758Z,1003.28
2022-08-25T10:24:30.514Z,1003.25
2022-08-25T10:25:30.493Z,1003.26
2022-08-25T10:26:34.321Z,1003.23
2022-08-25T10:27:30.468Z,1003.30
2022-08-25T10:28:30.458Z,1003.24
2022-08-25T10:29:30.453Z,1003.30
2022-08-25T10:30:30.449Z,1003.29
2022-08-25T10:31:35.449Z,1003.33
2022-08-25T10:32:30.449Z,1003.19
2022-08-25T10:33:30.426Z,1003.33
2022-08-25T10:34:30.410Z,1003.26
2022-08-25T10:35:30.381Z,1003.21
2022-08-25T10:36:30.374Z,1003.23
2022-08-25T10:37:32.855Z,1003.26
2022-08-25T10:38:35.242Z,1003.25
2022-08-25T10:39:34.585Z,1003.20
2022-08-25T10:40:31.369Z,1003.22
2022-08-25T10:41:30.323Z,1003.28
2022-08-25T10:42:30.306Z,1003.28
2022-08-25T10:43:30.295Z,1003.23
2022-08-25T10:44:35.320Z,1003.12
2022-08-25T10:45:30.297Z,1003.11
2022-08-25T10:46:31.281Z,1003.16
2022-08-25T10:47:30.253Z,1003.11
2022-08-25T10:48:30.243Z,1003.13
2022-08-25T10:49:30.246Z,1003.01
2022-08-25T10:50:30.254Z,1003.07
2022-08-25T10:51:30.209Z,1003.02
2022-08-25T10:52:30.208Z,1003.11
2022-08-25T10:53:30.199Z,1003.14
2022-08-25T10:54:30.179Z,1002.96
2022-08-25T10:55:30.184Z,1003.00
2022-08-25T10:56:30.156Z,1003.04
2022-08-25T10:57:35.401Z,1003.02
2022-08-25T10:58:30.808Z,1003.08
2022-08-25T10:59:30.151Z,1002.99
2022-08-25T11:00:31.554Z,1002.98
2022-08-25T11:01:34.732Z,1002.94
2022-08-25T11:02:31.095Z,1002.88
2022-08-25T11:03:30.098Z,1002.85
2022-08-25T11:04:31.070Z,1002.81
2022-08-25T11:05:30.155Z,1002.93
2022-08-25T11:06:30.050Z,1002.88
2022-08-25T11:07:30.038Z,1002.85
2022-08-25T11:08:30.029Z,1002.87
2022-08-25T11:09:30.030Z,1002.83
2022-08-25T11:10:35.030Z,1002.78
2022-08-25T11:11:30.017Z,1002.81
2022-08-25T11:12:30.041Z,1002.83
2022-08-25T11:13:29.974Z,1002.79
2022-08-25T11:14:33.992Z,1002.74
2022-08-25T11:15:29.954Z,1002.75
2022-08-25T11:16:30.027Z,1002.78
2022-08-25T11:17:29.935Z,1002.76
2022-08-25T11:18:29.921Z,1002.71
2022-08-25T11:19:29.921Z,1002.73
2022-08-25T11:20:30.050Z,1002.71
2022-08-25T11:21:29.892Z,1002.67
2022-08-25T11:22:29.882Z,1002.61
2022-08-25T11:23:34.899Z,1002.67
2022-08-25T11:24:29.889Z,1002.71
2022-08-25T11:25:29.871Z,1002.64
2022-08-25T11:26:32.829Z,1002.69
2022-08-25T11:27:29.823Z,1002.62
2022-08-25T11:28:29.847Z,1002.62
2022-08-25T11:29:29.819Z,1002.71
2022-08-25T11:30:29.870Z,1002.67
2022-08-25T11:31:29.780Z,1002.71
2022-08-25T11:32:29.771Z,1002.65
2022-08-25T11:33:29.759Z,1002.68
2022-08-25T11:34:29.760Z,1002.62
2022-08-25T11:35:29.926Z,1002.65
2022-08-25T11:36:34.750Z,1002.62
2022-08-25T11:37:29.741Z,1002.63
2022-08-25T11:38:29.731Z,1002.65
2022-08-25T11:39:32.972Z,1002.59
2022-08-25T11:40:29.759Z,1002.57
2022-08-25T11:41:29.672Z,1002.55
2022-08-25T11:42:29.665Z,1002.60
2022-08-25T11:43:29.652Z,1002.56
2022-08-25T11:44:30.655Z,1002.61
2022-08-25T11:45:29.637Z,1002.51
2022-08-25T11:46:29.662Z,1002.54
2022-08-25T11:47:29.612Z,1002.60
2022-08-25T11:48:29.600Z,1002.62
2022-08-25T11:49:35.702Z,1002.61
2022-08-25T11:50:30.085Z,1002.54
2022-08-25T11:51:30.954Z,1002.52
2022-08-25T11:52:30.743Z,1002.50
2022-08-25T11:53:30.435Z,1002.53
2022-08-25T11:54:29.551Z,1002.48
2022-08-25T11:55:29.524Z,1002.51
2022-08-25T11:56:29.516Z,1002.52
2022-08-25T11:57:29.504Z,1002.38
2022-08-25T11:58:30.574Z,1002.41
2022-08-25T11:59:29.481Z,1002.42
2022-08-25T12:00:29.496Z,1002.46
2022-08-25T12:01:29.460Z,1002.52
2022-08-25T12:02:34.473Z,1002.59
2022-08-25T12:03:29.464Z,1002.61
2022-08-25T12:04:29.559Z,1002.65
2022-08-25T12:05:29.480Z,1002.68
2022-08-25T12:06:29.409Z,1002.61
2022-08-25T12:07:29.396Z,1002.68
2022-08-25T12:08:29.394Z,1002.68
2022-08-25T12:09:29.376Z,1002.67
2022-08-25T12:10:29.377Z,1002.60
2022-08-25T12:11:29.354Z,1002.71
2022-08-25T12:12:30.348Z,1002.62
2022-08-25T12:13:29.333Z,1002.60
2022-08-25T12:14:29.325Z,1002.66
2022-08-25T12:15:34.343Z,1002.60
2022-08-25T12:16:29.426Z,1002.53
2022-08-25T12:17:29.319Z,1002.57
2022-08-25T12:18:29.283Z,1002.44
2022-08-25T12:19:29.276Z,1002.54
2022-08-25T12:20:29.273Z,1002.45
2022-08-25T12:21:29.266Z,1002.47
2022-08-25T12:22:29.245Z,1002.39
2022-08-25T12:23:29.231Z,1002.50
2022-08-25T12:24:29.222Z,1002.48
2022-08-25T12:25:29.220Z,1002.50
2022-08-25T12:26:29.206Z,1002.46
2022-08-25T12:27:29.190Z,1002.43
2022-08-25T12:28:34.995Z,1002.44
2022-08-25T12:29:29.172Z,1002.41
2022-08-25T12:30:29.285Z,1002.45
2022-08-25T12:31:29.306Z,1002.42
2022-08-25T12:32:29.145Z,1002.40
2022-08-25T12:33:29.132Z,1002.40
2022-08-25T12:34:29.127Z,1002.31
2022-08-25T12:35:29.442Z,1002.34
2022-08-25T12:36:29.106Z,1002.37
2022-08-25T12:37:29.092Z,1002.36
2022-08-25T12:38:29.086Z,1002.32
2022-08-25T12:39:34.095Z,1002.42
2022-08-25T12:40:29.213Z,1002.37
2022-08-25T12:41:31.031Z,1002.33
2022-08-25T12:42:29.046Z,1002.35
2022-08-25T12:43:33.528Z,1002.29
2022-08-25T12:44:30.028Z,1002.26
2022-08-25T12:45:29.024Z,1002.18
2022-08-25T12:46:29.019Z,1002.07
2022-08-25T12:47:28.995Z,1002.08
2022-08-25T12:48:28.994Z,1002.05
2022-08-25T12:49:28.974Z,1002.09
2022-08-25T12:50:33.997Z,1002.05
2022-08-25T12:51:28.956Z,1002.01
2022-08-25T12:52:28.968Z,1002.04
2022-08-25T12:53:28.934Z,1002.06
2022-08-25T12:54:28.926Z,1002.08
2022-08-25T12:55:28.926Z,1002.05
2022-08-25T12:56:28.908Z,1002.05
2022-08-25T12:57:29.409Z,1001.98
2022-08-25T12:58:43.776Z,1002.04
2022-08-25T12:59:29.875Z,1002.06
2022-08-25T13:01:36.074Z,1001.95
2022-08-25T13:02:28.958Z,1002.03
2022-08-25T13:03:29.001Z,1002.01
2022-08-25T13:04:28.825Z,1002.02
2022-08-25T13:05:28.824Z,1001.96
2022-08-25T13:06:28.805Z,1001.93
2022-08-25T13:07:28.794Z,1001.95
2022-08-25T13:08:33.918Z,1001.84
2022-08-25T13:09:29.771Z,1001.91
2022-08-25T13:10:28.782Z,1001.83
2022-08-25T13:11:28.750Z,1001.82
2022-08-25T13:12:33.765Z,1001.91
2022-08-25T13:13:28.752Z,1001.84
2022-08-25T13:14:28.774Z,1001.87
2022-08-25T13:15:28.720Z,1001.86
2022-08-25T13:16:29.915Z,1001.81
2022-08-25T13:17:29.040Z,1001.77
2022-08-25T13:18:28.679Z,1001.79
2022-08-25T13:19:34.636Z,1001.73
2022-08-25T13:20:29.667Z,1001.82
2022-08-25T13:21:28.648Z,1001.79
2022-08-25T13:22:28.638Z,1001.80
2022-08-25T13:23:29.242Z,1001.79
2022-08-25T13:24:28.620Z,1001.77
2022-08-25T13:25:33.640Z,1001.68
2022-08-25T13:26:28.621Z,1001.74
2022-08-25T13:27:28.607Z,1001.70
2022-08-25T13:28:28.575Z,1001.70
2022-08-25T13:29:28.562Z,1001.73
2022-08-25T13:30:29.562Z,1001.66
2022-08-25T13:31:28.610Z,1001.62
2022-08-25T13:32:32.084Z,1001.59
2022-08-25T13:33:29.523Z,1001.59
2022-08-25T13:34:34.256Z,1001.64
2022-08-25T13:35:32.683Z,1001.58
2022-08-25T13:36:28.498Z,1001.62
2022-08-25T13:37:29.603Z,1001.62
2022-08-25T13:38:33.494Z,1001.55
2022-08-25T13:39:45.513Z,1001.55
2022-08-25T13:40:29.609Z,1001.53
2022-08-25T13:41:29.638Z,1001.60
2022-08-25T13:42:29.078Z,1001.47
2022-08-25T13:43:28.415Z,1001.51
2022-08-25T13:44:28.404Z,1001.55
2022-08-25T13:45:28.489Z,1001.51
2022-08-25T13:46:28.473Z,1001.52
2022-08-25T13:47:28.373Z,1001.50
2022-08-25T13:48:28.362Z,1001.49
2022-08-25T13:49:28.354Z,1001.43
2022-08-25T13:50:28.354Z,1001.50
2022-08-25T13:51:33.353Z,1001.50
2022-08-25T13:52:29.254Z,1001.43
2022-08-25T13:53:30.626Z,1001.45
2022-08-25T13:54:28.300Z,1001.42
2022-08-25T13:55:28.465Z,1001.42
2022-08-25T13:56:31.138Z,1001.45
2022-08-25T13:57:30.316Z,1001.44
2022-08-25T13:58:39.472Z,1001.47
2022-08-25T13:59:29.242Z,1001.37
2022-08-25T14:00:31.586Z,1001.30
2022-08-25T14:01:48.915Z,1001.34
2022-08-25T14:02:29.298Z,1001.32
2022-08-25T14:03:30.113Z,1001.28
2022-08-25T14:04:33.213Z,1001.28
2022-08-25T14:05:28.220Z,1001.31
2022-08-25T14:06:28.204Z,1001.28
2022-08-25T14:07:34.258Z,1001.17
2022-08-25T14:08:29.440Z,1001.30
2022-08-25T14:09:28.520Z,1001.25
2022-08-25T14:10:28.129Z,1001.22
2022-08-25T14:11:28.125Z,1001.21
2022-08-25T14:13:30.893Z,1001.18
2022-08-25T14:14:28.086Z,1001.20
2022-08-25T14:15:28.072Z,1001.16
2022-08-25T14:16:28.213Z,1001.11
2022-08-25T14:17:39.116Z,1001.14
2022-08-25T14:18:29.068Z,1001.07
2022-08-25T14:19:28.053Z,1001.07
2022-08-25T14:20:28.021Z,1001.13
2022-08-25T14:21:28.017Z,1001.04
2022-08-25T14:22:28.015Z,1001.07
2022-08-25T14:23:27.998Z,1001.06
2022-08-25T14:24:27.983Z,1001.03
2022-08-25T14:25:27.968Z,1001.06
2022-08-25T14:26:27.965Z,1001.07
2022-08-25T14:27:27.966Z,1001.08
2022-08-25T14:28:27.933Z,1001.05
2022-08-25T14:29:27.924Z,1000.98
2022-08-25T14:30:32.933Z,1001.00
2022-08-25T14:31:28.101Z,1001.04
2022-08-25T14:32:27.913Z,1001.02
2022-08-25T14:33:27.882Z,1000.95
2022-08-25T14:34:28.732Z,1001.11
2022-08-25T14:35:27.861Z,1000.98
2022-08-25T14:36:27.846Z,1001.05
2022-08-25T14:37:27.849Z,1001.02
2022-08-25T14:38:27.825Z,1001.07
2022-08-25T14:39:27.818Z,1001.05
2022-08-25T14:40:32.069Z,1001.02
2022-08-25T14:41:28.794Z,1000.98
2022-08-25T14:42:27.791Z,1000.98
2022-08-25T14:43:32.811Z,1000.98
2022-08-25T14:44:27.786Z,1000.98
2022-08-25T14:45:27.832Z,1000.99
2022-08-25T14:46:27.742Z,1000.92
2022-08-25T14:47:27.745Z,1000.92
2022-08-25T14:48:27.721Z,1000.93
2022-08-25T14:49:27.712Z,1000.89
2022-08-25T14:50:27.699Z,1000.82
2022-08-25T14:51:27.688Z,1000.88
2022-08-25T14:52:27.687Z,1000.89
2022-08-25T14:53:27.671Z,1000.84
2022-08-25T14:54:27.653Z,1000.87
2022-08-25T14:55:31.563Z,1000.84
2022-08-25T14:56:32.672Z,1000.78
2022-08-25T14:57:27.645Z,1000.80
2022-08-25T14:58:27.633Z,1000.73
2022-08-25T14:59:28.600Z,1000.78
2022-08-25T15:00:28.009Z,1000.71
2022-08-25T15:01:29.352Z,1000.72
2022-08-25T15:02:30.503Z,1000.78
2022-08-25T15:03:27.566Z,1000.80
2022-08-25T15:04:27.713Z,1000.78
2022-08-25T15:05:28.483Z,1000.75
2022-08-25T15:06:27.525Z,1000.83
2022-08-25T15:07:27.526Z,1000.80
2022-08-25T15:08:32.466Z,1000.80
2022-08-25T15:09:33.868Z,1000.76
2022-08-25T15:10:27.508Z,1000.74
2022-08-25T15:11:27.499Z,1000.74
2022-08-25T15:12:46.871Z,1000.78
2022-08-25T15:13:28.451Z,1000.67
2022-08-25T15:14:28.896Z,1000.80
2022-08-25T15:15:28.429Z,1000.69
2022-08-25T15:16:34.949Z,1000.78
2022-08-25T15:17:28.429Z,1000.77
2022-08-25T15:18:27.400Z,1000.75
2022-08-25T15:19:27.494Z,1000.79
2022-08-25T15:20:27.376Z,1000.71
2022-08-25T15:21:27.388Z,1000.73
2022-08-25T15:22:32.377Z,1000.77
2022-08-25T15:23:27.367Z,1000.62
2022-08-25T15:24:27.365Z,1000.77
2022-08-25T15:25:27.335Z,1000.73
2022-08-25T15:26:27.320Z,1000.71
2022-08-25T15:27:27.303Z,1000.69
2022-08-25T15:28:27.290Z,1000.62
2022-08-25T15:29:27.298Z,1000.63
2022-08-25T15:30:31.109Z,1000.66
2022-08-25T15:31:27.333Z,1000.61
2022-08-25T15:32:27.854Z,1000.66
2022-08-25T15:33:27.283Z,1000.59
2022-08-25T15:34:27.229Z,1000.55
2022-08-25T15:35:32.244Z,1000.61
2022-08-25T15:36:27.253Z,1000.56
2022-08-25T15:37:27.227Z,1000.64
2022-08-25T15:38:27.182Z,1000.61
2022-08-25T15:39:27.178Z,1000.57
2022-08-25T15:40:27.353Z,1000.60
2022-08-25T15:41:27.897Z,1000.60
2022-08-25T15:42:27.138Z,1000.56
2022-08-25T15:43:27.130Z,1000.60
2022-08-25T15:44:29.507Z,1000.56
2022-08-25T15:45:27.109Z,1000.57
2022-08-25T15:46:27.152Z,1000.56
2022-08-25T15:47:27.089Z,1000.57
2022-08-25T15:48:32.205Z,1000.51
2022-08-25T15:49:29.680Z,1000.46
2022-08-25T15:50:27.086Z,1000.49
2022-08-25T15:51:27.055Z,1000.50
2022-08-25T15:52:31.073Z,1000.52
2022-08-25T15:53:28.023Z,1000.45
2022-08-25T15:54:27.106Z,1000.46
2022-08-25T15:55:27.001Z,1000.47
2022-08-25T15:56:27.223Z,1000.47
2022-08-25T15:57:26.980Z,1000.37
2022-08-25T15:58:26.975Z,1000.46
2022-08-25T15:59:26.958Z,1000.51
2022-08-25T16:00:26.945Z,1000.45
2022-08-25T16:01:31.968Z,1000.48
2022-08-25T16:02:26.977Z,1000.48
2022-08-25T16:03:26.943Z,1000.46
2022-08-25T16:04:26.906Z,1000.46
2022-08-25T16:05:27.059Z,1000.44
2022-08-25T16:06:26.881Z,1000.39
2022-08-25T16:07:26.884Z,1000.48
2022-08-25T16:08:26.862Z,1000.46
2022-08-25T16:09:26.853Z,1000.42